Time;durP1;ratioP1;P1;durP2;ratioP2;P2;SDS_P1;SDS_P2;PMS_P1;PMS_P2;Temp;Humidity;BMP_temperature;BMP_pressure;BME280_temperature;BME280_humidity;BME280_pressure;Samples;Min_cycle;Max_cycle;Signal;HPM_P1;HPM_P2
2022/02/05 00:01:49;;;;;;;11.80;4.50;;;3.90;99.90;;;;;;5054147;28;20178;-76
2022/02/05 00:04:16;;;;;;;12.65;4.13;;;3.90;99.90;;;;;;5054418;28;20559;-76
2022/02/05 00:06:45;;;;;;;14.90;3.60;;;3.80;99.90;;;;;;5054340;28;20257;-76
2022/02/05 00:09:19;;;;;;;8.32;3.70;;;4.00;99.90;;;;;;5054318;28;20185;-76
2022/02/05 00:14:33;;;;;;;10.57;4.13;;;3.90;99.90;;;;;;5054266;28;20202;-76
2022/02/05 00:33:15;;;;;;;7.80;3.95;;;4.00;99.90;;;;;;5054368;28;20189;-78
2022/02/05 00:41:45;;;;;;;5.07;2.58;;;3.80;99.90;;;;;;5053634;28;20586;-76
2022/02/05 00:44:10;;;;;;;4.80;2.63;;;3.80;99.90;;;;;;5053798;28;20684;-76
2022/02/05 00:46:39;;;;;;;10.43;3.47;;;3.80;99.90;;;;;;5053266;28;20182;-75
2022/02/05 00:49:05;;;;;;;5.22;2.22;;;3.70;99.90;;;;;;5053737;28;20178;-75
2022/02/05 00:51:36;;;;;;;4.13;3.00;;;3.80;99.90;;;;;;5052149;28;20185;-76
2022/02/05 00:56:50;;;;;;;6.60;2.70;;;3.70;99.90;;;;;;5053584;28;20175;-75
2022/02/05 00:59:18;;;;;;;5.38;3.17;;;3.70;99.90;;;;;;5053671;28;20638;-76
2022/02/05 01:01:44;;;;;;;4.63;2.50;;;3.80;99.90;;;;;;5053247;28;20675;-76
2022/02/05 01:04:10;;;;;;;8.10;3.55;;;3.70;99.90;;;;;;5053556;28;20224;-76
2022/02/05 01:06:36;;;;;;;5.57;2.50;;;3.70;99.90;;;;;;5053519;28;20175;-77
2022/02/05 01:09:07;;;;;;;4.80;2.53;;;3.70;99.90;;;;;;5052107;28;20178;-76
2022/02/05 01:11:33;;;;;;;7.80;2.25;;;3.80;99.90;;;;;;5053001;28;20586;-76
2022/02/05 01:14:00;;;;;;;6.35;2.97;;;3.80;99.90;;;;;;5053250;28;20197;-76
2022/02/05 01:16:44;;;;;;;13.20;3.10;;;3.80;99.90;;;;;;5053363;28;20178;-76
2022/02/05 01:19:14;;;;;;;5.60;2.83;;;3.80;99.90;;;;;;5053257;28;20174;-76
2022/02/05 01:21:48;;;;;;;8.38;2.65;;;3.70;99.90;;;;;;5052922;28;20551;-76
2022/02/05 01:24:16;;;;;;;5.80;2.17;;;3.70;99.90;;;;;;5053373;28;20260;-76
2022/02/05 01:26:49;;;;;;;7.57;2.55;;;3.80;99.90;;;;;;5053209;28;20170;-76
2022/02/05 01:29:35;;;;;;;4.95;2.83;;;3.90;99.90;;;;;;5051918;28;20251;-76
2022/02/05 01:32:06;;;;;;;2.85;1.85;;;3.80;99.90;;;;;;5053029;28;20216;-76
2022/02/05 01:34:39;;;;;;;8.27;2.75;;;3.80;99.90;;;;;;5053039;28;20188;-76
2022/02/05 01:53:47;;;;;;;8.13;2.92;;;3.90;99.90;;;;;;5053207;28;20201;-76
2022/02/05 01:56:33;;;;;;;7.38;2.80;;;3.80;99.90;;;;;;5053037;28;20183;-75
2022/02/05 02:07:24;;;;;;;9.88;3.58;;;3.70;99.90;;;;;;5056182;28;20638;-75
2022/02/05 02:12:36;;;;;;;9.98;2.00;;;3.70;99.90;;;;;;5056404;28;20193;-75
2022/02/05 02:15:08;;;;;;;7.75;2.17;;;3.70;99.90;;;;;;5056542;28;20201;-76
2022/02/05 02:25:11;;;;;;;6.15;1.80;;;3.60;99.90;;;;;;5056705;28;20182;-76
2022/02/05 02:27:45;;;;;;;5.40;2.13;;;3.50;99.90;;;;;;5056250;28;20557;-75
2022/02/05 02:30:18;;;;;;;6.00;2.10;;;3.50;99.90;;;;;;5056429;28;20182;-75
2022/02/05 02:32:48;;;;;;;14.27;2.53;;;3.50;99.90;;;;;;5056016;28;20225;-75
2022/02/05 02:35:25;;;;;;;4.55;2.15;;;3.50;99.90;;;;;;5056264;28;20193;-76
2022/02/05 02:38:32;;;;;;;15.40;3.47;;;3.40;99.90;;;;;;5056463;28;20181;-76
2022/02/05 02:40:57;;;;;;;4.20;1.75;;;3.60;99.90;;;;;;5050768;28;20201;-75
2022/02/05 02:43:26;;;;;;;11.13;2.38;;;3.80;99.90;;;;;;5056322;28;20197;-76
2022/02/05 02:45:52;;;;;;;8.20;2.63;;;3.70;99.90;;;;;;5056164;28;20188;-75
2022/02/05 02:48:18;;;;;;;4.20;2.40;;;3.60;99.90;;;;;;5056167;28;20643;-76
2022/02/05 02:58:51;;;;;;;6.63;2.15;;;3.40;99.90;;;;;;5056058;28;20642;-76
2022/02/05 03:01:19;;;;;;;8.30;2.75;;;3.40;99.90;;;;;;5055453;28;20187;-75
2022/02/05 03:03:45;;;;;;;10.98;3.35;;;3.40;99.90;;;;;;5054590;28;20200;-76
2022/02/05 03:06:11;;;;;;;8.75;1.67;;;3.50;99.90;;;;;;5055588;28;20179;-76
2022/02/05 03:08:37;;;;;;;5.90;1.90;;;3.50;99.90;;;;;;5054974;28;20291;-75
2022/02/05 03:11:02;;;;;;;5.33;2.10;;;3.50;99.90;;;;;;5055353;28;20420;-76
2022/02/05 03:13:29;;;;;;;9.20;2.50;;;3.50;99.90;;;;;;5054263;28;20435;-76
2022/02/05 03:15:54;;;;;;;7.60;2.20;;;3.50;99.90;;;;;;5054147;28;20544;-77
2022/02/05 03:18:30;;;;;;;5.87;2.03;;;3.40;99.90;;;;;;5054012;28;20192;-77
2022/02/05 03:20:56;;;;;;;6.80;2.35;;;3.50;99.90;;;;;;5053903;28;20555;-76
2022/02/05 03:23:21;;;;;;;16.80;3.33;;;3.40;99.90;;;;;;5055270;28;20196;-76
2022/02/05 03:25:47;;;;;;;9.20;2.23;;;3.40;99.90;;;;;;5055241;28;20181;-76
2022/02/05 03:28:13;;;;;;;17.70;4.53;;;3.40;99.90;;;;;;5055288;28;20201;-76
2022/02/05 03:30:38;;;;;;;7.30;2.00;;;3.30;99.90;;;;;;5055105;28;20267;-76
2022/02/05 03:33:04;;;;;;;11.90;2.83;;;3.30;99.90;;;;;;5053837;28;20237;-76
2022/02/05 03:35:30;;;;;;;6.67;2.07;;;3.40;99.90;;;;;;5055080;28;20288;-77
2022/02/05 03:37:55;;;;;;;5.40;1.90;;;3.30;99.90;;;;;;5054150;28;20180;-75
2022/02/05 03:40:21;;;;;;;10.73;3.47;;;3.30;99.90;;;;;;5054968;28;20176;-75
2022/02/05 03:42:47;;;;;;;5.47;2.50;;;3.30;99.90;;;;;;5054583;28;20203;-76
2022/02/05 03:45:14;;;;;;;10.40;2.47;;;3.30;99.90;;;;;;5054797;28;20782;-75
2022/02/05 03:47:40;;;;;;;11.95;3.08;;;3.30;99.90;;;;;;5054889;28;20693;-76
2022/02/05 03:50:06;;;;;;;7.97;2.90;;;3.30;99.90;;;;;;5054973;28;20329;-77
2022/02/05 03:52:32;;;;;;;6.40;2.20;;;3.20;99.90;;;;;;5054516;28;20580;-76
2022/02/05 03:54:57;;;;;;;12.23;3.37;;;3.20;99.90;;;;;;5055054;28;20194;-75
2022/02/05 03:57:23;;;;;;;10.07;2.90;;;3.20;99.90;;;;;;5054827;28;20175;-75
2022/02/05 03:59:50;;;;;;;7.03;2.53;;;3.20;99.90;;;;;;5054779;28;20207;-76
2022/02/05 04:02:15;;;;;;;11.95;2.90;;;3.30;99.90;;;;;;5053008;28;20197;-76
2022/02/05 04:04:41;;;;;;;11.00;2.27;;;3.40;99.90;;;;;;5053366;28;20327;-76
2022/02/05 04:07:07;;;;;;;7.00;2.00;;;3.30;99.90;;;;;;5053449;28;20260;-75
2022/02/05 04:09:40;;;;;;;6.13;2.70;;;3.30;99.90;;;;;;5054407;28;20243;-75
2022/02/05 04:17:29;;;;;;;6.22;2.15;;;3.30;99.90;;;;;;5054734;28;20186;-76
2022/02/05 04:19:54;;;;;;;6.73;2.70;;;3.20;99.90;;;;;;5053767;28;20545;-76
2022/02/05 04:22:20;;;;;;;8.73;3.00;;;3.20;99.90;;;;;;5052129;28;20197;-76
2022/02/05 04:24:46;;;;;;;7.73;2.40;;;3.30;99.90;;;;;;5053979;28;20182;-77
2022/02/05 04:27:13;;;;;;;10.10;2.60;;;3.20;99.90;;;;;;5054221;28;20189;-76
2022/02/05 04:29:38;;;;;;;10.95;2.50;;;3.30;99.90;;;;;;5053966;28;20189;-75
2022/02/05 04:32:05;;;;;;;5.10;3.00;;;3.30;99.90;;;;;;5053809;28;20666;-76
2022/02/05 04:34:30;;;;;;;6.63;2.60;;;3.30;99.90;;;;;;5054026;28;20553;-76
2022/02/05 04:36:58;;;;;;;7.63;2.70;;;3.40;99.90;;;;;;5053888;28;20176;-76
2022/02/05 04:39:23;;;;;;;10.45;3.00;;;3.40;99.90;;;;;;5053883;28;20177;-76
2022/02/05 04:41:55;;;;;;;6.53;2.20;;;3.40;99.90;;;;;;5053711;28;20248;-76
2022/02/05 04:50:04;;;;;;;10.00;3.20;;;3.30;99.90;;;;;;5052708;28;20576;-76
2022/02/05 04:52:39;;;;;;;6.60;2.78;;;3.40;99.90;;;;;;5053216;28;20241;-76
2022/02/05 04:57:55;;;;;;;7.88;2.78;;;3.30;99.90;;;;;;5053888;28;20175;-76
2022/02/05 05:03:25;;;;;;;15.13;3.35;;;3.40;99.90;;;;;;5052221;28;20224;-76
2022/02/05 05:06:11;;;;;;;16.75;2.97;;;3.40;99.90;;;;;;5052776;28;20178;-75
2022/02/05 05:08:47;;;;;;;12.73;3.17;;;3.50;99.90;;;;;;5053415;28;20204;-76
2022/02/05 05:21:51;;;;;;;4.13;2.65;;;3.60;99.90;;;;;;5053183;28;20285;-77
2022/02/05 05:24:17;;;;;;;6.25;2.40;;;3.60;99.90;;;;;;5053185;28;20182;-76
2022/02/05 05:26:42;;;;;;;6.87;2.53;;;3.80;99.90;;;;;;5053181;28;20178;-76
2022/02/05 05:29:08;;;;;;;12.73;2.50;;;3.70;99.90;;;;;;5052804;28;20654;-76
2022/02/05 05:31:33;;;;;;;7.80;2.40;;;3.70;99.90;;;;;;5052385;28;20228;-76
2022/02/05 05:33:59;;;;;;;7.67;2.80;;;3.80;99.90;;;;;;5051966;28;20201;-76
2022/02/05 05:36:25;;;;;;;6.40;2.40;;;3.70;99.90;;;;;;5053136;28;20167;-75
2022/02/05 05:38:50;;;;;;;6.80;2.50;;;3.80;99.90;;;;;;5053131;28;20180;-75
2022/02/05 05:41:16;;;;;;;5.93;2.10;;;3.80;99.90;;;;;;5051449;28;20732;-77
2022/02/05 05:46:44;;;;;;;6.38;2.75;;;3.80;99.90;;;;;;5053341;28;20223;-76
2022/02/05 05:49:22;;;;;;;10.80;3.15;;;3.80;99.90;;;;;;5052952;28;20521;-76
2022/02/05 05:51:48;;;;;;;5.75;2.63;;;3.80;99.90;;;;;;5051431;28;20662;-76
2022/02/05 05:54:15;;;;;;;6.10;2.55;;;3.80;99.90;;;;;;5052859;28;20198;-76
2022/02/05 05:56:42;;;;;;;7.30;2.60;;;3.70;99.90;;;;;;5053089;28;20536;-76
2022/02/05 05:59:08;;;;;;;7.68;2.60;;;3.70;99.90;;;;;;5053014;28;20224;-76
2022/02/05 06:01:36;;;;;;;8.70;2.77;;;3.70;99.90;;;;;;5052391;28;20198;-76
2022/02/05 06:04:02;;;;;;;5.78;2.90;;;3.70;99.90;;;;;;5052699;28;20869;-75
2022/02/05 06:06:27;;;;;;;5.73;2.03;;;3.70;99.90;;;;;;5052775;28;20181;-75
2022/02/05 06:08:53;;;;;;;4.10;2.23;;;3.60;99.90;;;;;;5052910;28;20412;-76
2022/02/05 06:11:19;;;;;;;5.63;2.10;;;3.60;99.90;;;;;;5052306;28;20210;-76
2022/02/05 06:13:44;;;;;;;8.37;2.37;;;3.60;99.90;;;;;;5052657;28;20182;-76
2022/02/05 06:16:14;;;;;;;7.30;2.77;;;3.60;99.90;;;;;;5052718;28;20176;-76
2022/02/05 06:18:40;;;;;;;7.35;2.95;;;3.60;99.90;;;;;;5051525;28;20433;-76
2022/02/05 06:21:06;;;;;;;9.82;2.60;;;3.50;99.90;;;;;;5052397;28;20172;-76
2022/02/05 06:23:31;;;;;;;6.30;2.57;;;3.60;99.90;;;;;;5052434;28;20251;-75
2022/02/05 06:25:57;;;;;;;5.30;3.00;;;3.60;99.90;;;;;;5052609;28;20681;-75
2022/02/05 06:28:23;;;;;;;7.57;2.73;;;3.50;99.90;;;;;;5052655;28;20202;-76
2022/02/05 06:30:49;;;;;;;5.73;2.40;;;3.50;99.90;;;;;;5052631;28;20455;-76
2022/02/05 06:33:14;;;;;;;9.73;2.80;;;3.50;99.90;;;;;;5052648;28;20571;-76
2022/02/05 06:35:40;;;;;;;8.63;2.90;;;3.50;99.90;;;;;;5052252;28;20206;-75
2022/02/05 06:38:06;;;;;;;13.13;2.90;;;3.50;99.90;;;;;;5052458;28;20409;-75
2022/02/05 06:40:32;;;;;;;7.43;2.10;;;3.60;99.90;;;;;;5051102;28;20193;-76
2022/02/05 06:42:58;;;;;;;4.70;3.15;;;3.60;99.90;;;;;;5052104;28;20246;-75
2022/02/05 06:45:23;;;;;;;7.03;3.00;;;3.50;99.90;;;;;;5055565;28;20180;-75
2022/02/05 06:47:49;;;;;;;5.70;2.47;;;3.50;99.90;;;;;;5056319;28;20427;-76
2022/02/05 06:50:15;;;;;;;12.00;2.80;;;3.50;99.90;;;;;;5056050;28;20586;-77
2022/02/05 06:52:41;;;;;;;5.03;2.37;;;3.40;99.90;;;;;;5055518;28;20204;-76
2022/02/05 06:55:07;;;;;;;5.13;2.47;;;3.50;99.90;;;;;;5054659;28;20448;-75
2022/02/05 06:57:34;;;;;;;5.95;2.97;;;3.50;99.90;;;;;;5055799;28;20585;-76
2022/02/05 06:59:59;;;;;;;12.55;2.88;;;3.50;99.90;;;;;;5055700;28;20673;-76
2022/02/05 07:02:25;;;;;;;6.37;2.83;;;3.40;99.90;;;;;;5055512;28;20352;-77
2022/02/05 07:04:50;;;;;;;7.13;2.93;;;3.40;99.90;;;;;;5055720;28;20512;-75
2022/02/05 07:07:16;;;;;;;4.97;2.90;;;3.30;99.90;;;;;;5055647;28;20182;-75
2022/02/05 07:09:42;;;;;;;12.52;3.20;;;3.30;99.90;;;;;;5055518;28;20174;-76
2022/02/05 07:12:10;;;;;;;9.93;2.75;;;3.30;99.90;;;;;;5055177;28;20202;-76
2022/02/05 07:14:59;;;;;;;7.25;2.45;;;3.20;99.90;;;;;;5055492;28;20254;-76
2022/02/05 07:17:55;;;;;;;12.60;2.90;;;3.10;99.90;;;;;;5055489;28;20223;-76
2022/02/05 07:20:24;;;;;;;8.65;2.97;;;3.20;99.90;;;;;;5054898;28;20197;-77
2022/02/05 07:23:21;;;;;;;5.78;2.95;;;3.10;99.90;;;;;;5055039;28;20190;-75
2022/02/05 07:31:12;;;;;;;5.40;3.10;;;3.10;99.90;;;;;;5055194;28;20188;-77
2022/02/05 07:33:38;;;;;;;12.07;2.85;;;3.00;99.90;;;;;;5055263;28;20183;-76
2022/02/05 07:36:04;;;;;;;4.95;2.22;;;3.00;99.90;;;;;;5054940;28;20625;-76
2022/02/05 07:38:30;;;;;;;7.53;2.03;;;3.10;99.90;;;;;;5055342;28;20256;-76
2022/02/05 07:40:55;;;;;;;10.87;2.50;;;3.10;99.90;;;;;;5054776;28;20417;-74
2022/02/05 07:43:27;;;;;;;7.90;3.37;;;3.10;99.90;;;;;;5055062;28;20193;-75
2022/02/05 07:45:53;;;;;;;12.20;3.40;;;3.10;99.90;;;;;;5055147;28;20174;-76
2022/02/05 07:48:19;;;;;;;16.73;3.28;;;3.10;99.90;;;;;;5054846;28;20231;-76
2022/02/05 07:50:45;;;;;;;8.50;3.27;;;3.20;99.90;;;;;;5054859;28;20182;-76
2022/02/05 07:53:10;;;;;;;16.50;3.47;;;3.20;99.90;;;;;;5053550;28;20236;-75
2022/02/05 07:55:36;;;;;;;6.73;2.97;;;3.30;99.90;;;;;;5053307;28;20210;-76
2022/02/05 07:58:01;;;;;;;13.77;2.83;;;3.30;99.90;;;;;;5053682;28;20177;-75
2022/02/05 08:00:27;;;;;;;9.23;3.43;;;3.40;99.90;;;;;;5054633;28;20238;-76
2022/02/05 08:02:56;;;;;;;9.20;3.63;;;3.40;99.90;;;;;;5054372;28;20220;-75
2022/02/05 08:05:22;;;;;;;12.30;3.38;;;3.40;99.90;;;;;;5054600;28;20176;-75
2022/02/05 08:07:48;;;;;;;13.40;3.10;;;3.40;99.90;;;;;;5054901;28;20186;-75
2022/02/05 08:10:15;;;;;;;7.65;2.90;;;3.30;99.90;;;;;;5053377;28;20511;-75
2022/02/05 08:12:47;;;;;;;8.10;3.53;;;3.40;99.90;;;;;;5054043;28;20240;-76
2022/02/05 08:15:17;;;;;;;11.57;2.78;;;3.50;99.90;;;;;;5054425;28;20259;-76
2022/02/05 08:17:42;;;;;;;17.05;3.25;;;3.50;99.90;;;;;;5054387;28;20177;-75
2022/02/05 08:20:08;;;;;;;3.90;3.10;;;3.50;99.90;;;;;;5053053;28;20174;-76
2022/02/05 08:22:34;;;;;;;10.27;3.58;;;3.50;99.90;;;;;;5053734;28;20201;-76
2022/02/05 08:25:00;;;;;;;5.90;3.10;;;3.50;99.90;;;;;;5054232;28;20233;-75
2022/02/05 08:27:26;;;;;;;8.57;3.33;;;3.60;99.90;;;;;;5053970;28;20174;-77
2022/02/05 08:29:55;;;;;;;11.55;3.42;;;3.70;99.90;;;;;;5054228;28;20204;-75
2022/02/05 08:32:24;;;;;;;16.23;3.50;;;3.70;99.90;;;;;;5053618;28;20233;-75
2022/02/05 08:34:50;;;;;;;4.55;2.03;;;3.70;99.90;;;;;;5052929;28;20202;-76
2022/02/05 08:37:16;;;;;;;9.93;2.90;;;3.70;99.90;;;;;;5054058;28;20621;-76
2022/02/05 08:39:43;;;;;;;8.87;4.90;;;3.70;99.90;;;;;;5053834;28;20261;-76
2022/02/05 08:42:08;;;;;;;9.38;3.80;;;3.80;99.90;;;;;;5053808;28;20439;-76
2022/02/05 08:44:34;;;;;;;7.53;3.40;;;3.80;99.90;;;;;;5035923;28;20254;-76
2022/02/05 08:47:01;;;;;;;13.47;3.23;;;3.90;99.90;;;;;;5053951;28;20190;-79
2022/02/05 08:49:30;;;;;;;12.90;4.30;;;3.90;99.90;;;;;;5053819;28;20209;-77
2022/02/05 08:51:59;;;;;;;16.67;4.85;;;4.00;99.90;;;;;;5053344;28;20558;-77
2022/02/05 08:54:25;;;;;;;14.75;3.35;;;4.00;99.90;;;;;;5053802;28;20244;-76
2022/02/05 08:56:53;;;;;;;11.88;3.97;;;4.00;99.90;;;;;;5053629;28;20257;-77
2022/02/05 08:59:19;;;;;;;8.90;3.45;;;4.10;99.90;;;;;;5053767;28;20183;-77
2022/02/05 09:01:57;;;;;;;15.13;4.43;;;4.00;99.90;;;;;;5053320;28;20239;-77
2022/02/05 09:04:33;;;;;;;11.90;4.05;;;4.10;99.90;;;;;;5052545;28;20181;-77
2022/02/05 09:07:00;;;;;;;10.77;3.42;;;4.20;99.90;;;;;;5053026;28;20669;-77
2022/02/05 09:12:02;;;;;;;11.45;3.88;;;4.20;99.90;;;;;;5053237;28;20205;-76
2022/02/05 09:14:35;;;;;;;18.13;4.03;;;4.20;99.90;;;;;;5053178;28;20317;-76
2022/02/05 09:17:01;;;;;;;12.40;3.33;;;4.30;99.90;;;;;;5053283;28;20182;-76
2022/02/05 09:19:28;;;;;;;8.77;3.50;;;4.40;99.90;;;;;;5053300;28;20191;-76
2022/02/05 09:21:54;;;;;;;12.52;4.32;;;4.40;99.90;;;;;;5052802;28;20515;-77
2022/02/05 09:24:20;;;;;;;13.13;3.87;;;4.50;99.90;;;;;;5053270;28;20652;-77
2022/02/05 09:26:49;;;;;;;9.70;3.40;;;4.60;99.90;;;;;;5053061;28;20972;-77
2022/02/05 09:29:20;;;;;;;12.95;3.15;;;4.60;99.90;;;;;;5052963;28;20239;-76
2022/02/05 09:31:49;;;;;;;10.70;3.13;;;4.70;99.90;;;;;;5051676;28;20198;-77
2022/02/05 09:34:16;;;;;;;15.05;3.67;;;4.60;99.90;;;;;;5053128;28;20186;-77
2022/02/05 09:36:42;;;;;;;10.07;3.40;;;4.70;99.90;;;;;;5053017;28;20181;-77
2022/02/05 09:39:09;;;;;;;9.57;3.80;;;4.80;99.90;;;;;;5053209;28;20178;-77
2022/02/05 09:41:36;;;;;;;8.30;3.55;;;4.80;99.90;;;;;;5052557;28;20210;-76
2022/02/05 09:44:02;;;;;;;12.75;4.10;;;4.80;99.90;;;;;;5053292;28;20162;-77
2022/02/05 09:46:28;;;;;;;6.22;2.97;;;4.90;99.90;;;;;;5053223;28;20579;-76
2022/02/05 09:48:54;;;;;;;9.93;2.43;;;5.00;99.90;;;;;;5053066;28;20208;-75
2022/02/05 09:51:24;;;;;;;6.68;3.08;;;5.10;99.90;;;;;;5052863;28;20173;-77
2022/02/05 09:53:53;;;;;;;8.82;3.65;;;5.10;99.90;;;;;;5051748;28;20535;-77
2022/02/05 09:56:20;;;;;;;18.98;3.40;;;5.10;99.90;;;;;;5052966;28;20166;-77
2022/02/05 09:58:46;;;;;;;15.63;3.08;;;5.10;99.90;;;;;;5052874;28;20174;-77
2022/02/05 10:01:16;;;;;;;5.97;2.90;;;5.10;99.90;;;;;;5052372;28;20678;-77
2022/02/05 10:03:44;;;;;;;9.57;4.50;;;5.10;99.90;;;;;;5052655;28;20424;-77
2022/02/05 10:06:27;;;;;;;10.23;3.15;;;5.20;99.90;;;;;;5053019;28;20244;-77
2022/02/05 10:09:09;;;;;;;12.70;3.63;;;5.10;99.90;;;;;;5052925;28;20323;-75
2022/02/05 10:12:03;;;;;;;9.73;3.63;;;5.10;99.90;;;;;;5052379;28;20623;-75
2022/02/05 10:14:32;;;;;;;3.85;2.42;;;5.40;99.90;;;;;;5052736;28;20247;-77
2022/02/05 10:17:00;;;;;;;9.35;3.00;;;5.40;99.90;;;;;;5052685;28;20170;-78
2022/02/05 10:19:52;;;;;;;4.78;2.92;;;5.50;99.90;;;;;;5054415;28;20175;-75
2022/02/05 10:22:20;;;;;;;9.38;4.20;;;5.40;99.90;;;;;;5056263;28;20211;-75
2022/02/05 10:24:54;;;;;;;6.30;3.63;;;5.50;99.90;;;;;;5056571;28;20182;-76
2022/02/05 10:27:31;;;;;;;3.55;2.22;;;5.60;99.90;;;;;;5056409;28;20184;-76
2022/02/05 10:30:04;;;;;;;8.20;3.22;;;5.90;99.90;;;;;;5056414;28;20272;-76
2022/02/05 10:32:30;;;;;;;9.60;2.45;;;5.90;99.90;;;;;;5055980;28;20247;-77
2022/02/05 10:35:15;;;;;;;8.60;3.53;;;5.90;99.90;;;;;;5056507;28;20214;-76
2022/02/05 10:37:50;;;;;;;12.00;3.40;;;6.20;99.90;;;;;;5056228;28;20173;-77
2022/02/05 10:40:22;;;;;;;13.02;5.07;;;6.10;99.90;;;;;;5056312;28;20174;-76
2022/02/05 10:43:03;;;;;;;8.80;3.33;;;5.90;99.90;;;;;;5055963;28;20542;-75
2022/02/05 10:45:50;;;;;;;5.38;2.72;;;6.10;99.90;;;;;;5054678;28;20278;-77
2022/02/05 10:48:20;;;;;;;15.50;3.63;;;6.20;99.90;;;;;;5056139;28;20223;-75
2022/02/05 10:50:49;;;;;;;7.35;3.20;;;6.30;99.90;;;;;;5054722;28;20553;-76
2022/02/05 10:53:33;;;;;;;10.45;3.50;;;6.40;99.90;;;;;;5054157;28;20252;-75
2022/02/05 11:07:20;;;;;;;3.28;2.28;;;6.10;99.90;;;;;;5055896;28;20257;-78
2022/02/05 11:09:50;;;;;;;10.25;3.85;;;5.90;99.90;;;;;;5055588;28;20763;-77
2022/02/05 11:20:23;;;;;;;8.10;2.97;;;6.00;99.90;;;;;;5034144;28;20273;-75
2022/02/05 11:23:00;;;;;;;5.40;3.72;;;5.90;99.90;;;;;;5054790;28;20190;-78
2022/02/05 11:25:35;;;;;;;10.93;4.68;;;5.90;99.90;;;;;;5055080;28;20197;-78
2022/02/05 11:28:01;;;;;;;10.32;3.75;;;5.90;99.90;;;;;;5055826;28;20189;-78
2022/02/05 11:30:27;;;;;;;10.50;3.53;;;6.00;99.90;;;;;;5054766;28;20227;-78
2022/02/05 11:32:54;;;;;;;14.13;3.20;;;6.30;99.90;;;;;;5054844;28;20439;-78
2022/02/05 11:35:33;;;;;;;7.60;3.30;;;6.50;99.90;;;;;;5055005;28;20262;-78
2022/02/05 11:38:01;;;;;;;7.70;3.47;;;6.40;99.90;;;;;;5055032;28;20181;-77
2022/02/05 11:40:48;;;;;;;3.78;2.60;;;6.70;99.90;;;;;;5055062;28;20193;-78
2022/02/05 11:43:18;;;;;;;8.20;2.70;;;7.20;99.90;;;;;;5055125;28;20660;-77
2022/02/05 11:45:44;;;;;;;10.88;3.13;;;7.10;99.90;;;;;;5054110;28;20291;-78
2022/02/05 11:48:56;;;;;;;7.20;2.42;;;7.20;99.90;;;;;;5055272;28;20178;-78
2022/02/05 11:51:22;;;;;;;6.55;3.13;;;7.30;99.90;;;;;;5051603;28;20650;-78
2022/02/05 11:53:59;;;;;;;4.97;2.60;;;7.60;99.90;;;;;;5055083;28;20182;-78
2022/02/05 11:59:57;;;;;;;4.80;2.33;;;7.90;99.90;;;;;;5054824;28;20612;-78
2022/02/05 12:02:23;;;;;;;4.53;2.45;;;7.60;99.90;;;;;;5040152;28;20212;-77
2022/02/05 12:05:34;;;;;;;8.30;2.20;;;7.70;99.90;;;;;;5054711;28;20177;-77
2022/02/05 12:08:06;;;;;;;12.05;2.70;;;7.70;99.90;;;;;;5012819;28;20201;-78
2022/02/05 12:10:45;;;;;;;7.30;2.65;;;7.60;99.90;;;;;;5012735;28;20176;-78
2022/02/05 12:13:23;;;;;;;4.32;2.65;;;7.70;99.90;;;;;;5039505;28;20216;-77
2022/02/05 12:15:55;;;;;;;6.93;2.72;;;7.60;99.90;;;;;;5053001;28;20198;-78
2022/02/05 12:18:30;;;;;;;5.15;2.58;;;7.50;99.90;;;;;;5054371;28;20252;-77
2022/02/05 12:21:03;;;;;;;5.78;2.83;;;7.20;99.90;;;;;;5054128;28;20186;-78
2022/02/05 12:26:25;;;;;;;7.88;1.90;;;7.20;99.90;;;;;;5053749;28;20178;-78
2022/02/05 12:28:56;;;;;;;6.85;2.33;;;7.30;99.90;;;;;;5053973;28;20609;-78
2022/02/05 12:31:21;;;;;;;6.93;2.60;;;7.40;99.90;;;;;;5053767;28;20194;-78
2022/02/05 12:34:09;;;;;;;5.50;2.43;;;7.50;99.90;;;;;;5054577;28;20205;-77
2022/02/05 12:36:43;;;;;;;7.28;2.55;;;7.50;99.90;;;;;;5054052;28;20589;-78
2022/02/05 12:39:12;;;;;;;2.67;1.70;;;7.70;99.90;;;;;;5054237;28;20205;-78
2022/02/05 12:41:44;;;;;;;5.03;3.08;;;8.00;99.90;;;;;;5052826;28;20237;-78
2022/02/05 12:44:09;;;;;;;4.80;1.95;;;8.00;99.90;;;;;;5054176;28;20602;-78
2022/02/05 12:46:51;;;;;;;6.40;2.37;;;7.90;99.90;;;;;;5053660;28;20236;-78
2022/02/05 12:49:23;;;;;;;6.15;1.83;;;7.70;99.90;;;;;;5053675;28;20265;-78
2022/02/05 12:51:50;;;;;;;3.88;2.03;;;7.60;99.90;;;;;;5053046;28;20194;-78
2022/02/05 12:54:19;;;;;;;6.15;2.28;;;7.40;99.90;;;;;;5053531;28;20202;-79
2022/02/05 12:56:47;;;;;;;6.85;1.75;;;7.40;99.90;;;;;;5054178;28;20591;-79
2022/02/05 12:59:23;;;;;;;4.82;1.80;;;7.60;99.90;;;;;;5054047;28;20265;-77
2022/02/05 13:01:58;;;;;;;2.90;1.40;;;7.60;99.90;;;;;;5053726;28;20209;-78
2022/02/05 13:04:29;;;;;;;8.07;2.10;;;7.70;99.90;;;;;;5053552;28;20178;-77
2022/02/05 13:07:03;;;;;;;6.20;2.17;;;7.90;99.90;;;;;;5053982;28;20539;-77
2022/02/05 13:09:30;;;;;;;5.05;1.77;;;8.10;99.90;;;;;;5052355;28;20181;-78
2022/02/05 13:12:02;;;;;;;7.75;2.30;;;8.00;99.90;;;;;;5052874;28;20194;-77
2022/02/05 13:14:44;;;;;;;2.90;1.67;;;7.90;99.90;;;;;;5053166;28;20210;-79
2022/02/05 13:17:26;;;;;;;3.45;2.05;;;7.80;99.90;;;;;;5053440;28;20693;-78
2022/02/05 13:20:16;;;;;;;2.58;2.10;;;8.10;99.90;;;;;;5053326;28;20684;-78
2022/02/05 13:35:59;;;;;;;5.68;1.38;;;8.50;99.90;;;;;;5053299;28;20213;-77
2022/02/05 13:38:27;;;;;;;2.85;1.98;;;8.40;99.90;;;;;;5053155;28;20336;-77
2022/02/05 13:41:05;;;;;;;6.40;2.17;;;8.70;99.90;;;;;;5052815;28;20256;-77
2022/02/05 13:43:43;;;;;;;7.35;1.98;;;8.90;99.90;;;;;;5051784;28;20549;-78
2022/02/05 13:46:14;;;;;;;4.95;1.73;;;9.00;99.90;;;;;;5053143;28;20186;-77
2022/02/05 13:48:41;;;;;;;5.00;1.80;;;8.60;99.90;;;;;;5052953;28;20178;-77
2022/02/05 13:51:07;;;;;;;5.68;3.42;;;8.40;99.90;;;;;;5052746;28;20206;-77
2022/02/05 13:53:34;;;;;;;24.83;2.95;;;8.30;99.90;;;;;;5055415;28;20198;-77
2022/02/05 13:56:04;;;;;;;2.13;1.67;;;8.10;99.90;;;;;;5055594;28;20259;-77
2022/02/05 13:58:38;;;;;;;9.70;2.40;;;7.70;99.90;;;;;;5056009;28;20174;-76
2022/02/05 14:01:04;;;;;;;6.88;2.00;;;7.70;99.90;;;;;;5056170;28;20173;-76
2022/02/05 14:03:30;;;;;;;8.57;1.92;;;7.70;99.90;;;;;;5055504;28;20199;-76
2022/02/05 14:06:02;;;;;;;3.95;1.80;;;7.70;99.90;;;;;;5056916;28;20183;-77
2022/02/05 14:08:32;;;;;;;4.25;2.15;;;7.80;99.90;;;;;;5056865;28;20215;-76
2022/02/05 14:11:01;;;;;;;9.93;3.20;;;8.10;99.90;;;;;;5056372;28;20198;-76
2022/02/05 14:13:27;;;;;;;8.18;2.15;;;8.50;99.90;;;;;;5056526;28;20203;-77
2022/02/05 14:15:58;;;;;;;3.83;1.75;;;8.60;99.90;;;;;;5054915;28;20732;-77
2022/02/05 14:18:25;;;;;;;5.55;1.95;;;8.70;99.90;;;;;;5056145;28;20202;-76
2022/02/05 14:21:04;;;;;;;3.33;1.88;;;8.70;99.90;;;;;;5055930;28;20593;-77
2022/02/05 14:23:32;;;;;;;4.57;1.75;;;8.90;99.90;;;;;;5056182;28;20206;-77
2022/02/05 14:26:15;;;;;;;3.55;1.38;;;8.70;99.90;;;;;;5056508;28;20174;-77
2022/02/05 14:28:55;;;;;;;4.10;1.88;;;8.70;99.90;;;;;;5055294;28;20195;-77
2022/02/05 14:31:31;;;;;;;5.38;1.90;;;8.40;99.90;;;;;;5055948;28;20175;-77
2022/02/05 14:36:48;;;;;;;6.75;2.30;;;8.90;99.90;;;;;;5056448;28;20265;-78
2022/02/05 14:42:03;;;;;;;6.20;1.52;;;9.40;99.90;;;;;;5056008;28;20250;-77
2022/02/05 14:44:29;;;;;;;4.07;1.70;;;9.30;99.90;;;;;;5056405;28;20190;-77
2022/02/05 14:46:55;;;;;;;3.07;1.43;;;9.30;99.90;;;;;;5056277;28;20190;-77
2022/02/05 14:49:21;;;;;;;6.17;1.90;;;9.50;99.90;;;;;;5056279;28;20180;-78
2022/02/05 14:51:46;;;;;;;2.70;1.90;;;9.40;99.90;;;;;;5054599;28;20202;-77
2022/02/05 14:54:12;;;;;;;3.83;1.47;;;9.10;99.90;;;;;;5054518;28;20214;-77
2022/02/05 14:56:38;;;;;;;5.35;2.20;;;9.50;99.90;;;;;;5055807;28;20258;-76
2022/02/05 14:59:04;;;;;;;5.73;2.00;;;9.30;99.90;;;;;;5055807;28;20608;-76
2022/02/05 15:01:31;;;;;;;4.07;2.05;;;9.20;99.90;;;;;;5055341;28;20174;-77
2022/02/05 15:03:58;;;;;;;5.45;1.70;;;9.10;99.90;;;;;;5055158;28;20181;-76
2022/02/05 15:06:29;;;;;;;3.25;1.50;;;9.10;99.90;;;;;;5055252;28;20177;-77
2022/02/05 15:08:57;;;;;;;2.63;1.42;;;9.20;99.90;;;;;;5055626;28;20178;-78
2022/02/05 15:11:25;;;;;;;3.95;1.48;;;9.10;99.90;;;;;;5055181;28;20224;-77
2022/02/05 15:13:52;;;;;;;3.22;1.40;;;9.30;99.90;;;;;;5055728;28;20173;-76
2022/02/05 15:16:18;;;;;;;7.00;2.20;;;8.90;99.90;;;;;;5055708;28;20264;-77
2022/02/05 15:18:52;;;;;;;7.73;2.23;;;8.70;99.90;;;;;;5055662;28;20171;-77
2022/02/05 15:21:19;;;;;;;7.10;1.95;;;8.80;99.90;;;;;;5055014;28;20410;-77
2022/02/05 15:23:45;;;;;;;5.82;2.08;;;8.80;99.90;;;;;;5055246;28;20172;-78
2022/02/05 15:26:10;;;;;;;4.00;1.70;;;8.80;99.90;;;;;;5055570;28;20266;-76
2022/02/05 15:28:36;;;;;;;4.20;1.70;;;8.80;99.90;;;;;;5053790;28;20929;-77
2022/02/05 15:31:02;;;;;;;6.50;1.73;;;8.70;99.90;;;;;;5038981;28;20191;-79
2022/02/05 15:33:28;;;;;;;2.92;1.42;;;8.60;99.90;;;;;;5042593;28;20278;-78
2022/02/05 15:35:58;;;;;;;7.20;2.10;;;8.60;99.90;;;;;;5047436;28;20671;-77
2022/02/05 15:38:34;;;;;;;10.73;2.47;;;8.40;99.90;;;;;;5043599;28;20592;-78
2022/02/05 15:46:08;;;;;;;7.82;1.98;;;7.90;99.90;;;;;;5037432;28;20607;-79
2022/02/05 15:48:34;;;;;;;9.35;1.90;;;7.90;99.90;;;;;;5059778;28;20198;-78